Time;durP1;ratioP1;P1;durP2;ratioP2;P2;SDS_P1;SDS_P2;PMS_P1;PMS_P2;Temp;Humidity;BMP_temperature;BMP_pressure;BME280_temperature;BME280_humidity;BME280_pressure;Samples;Min_cycle;Max_cycle;Signal;HPM_P1;HPM_P2
2022/11/08 00:01:58;;;;;;;14.75;5.10;;;12.70;99.90;;;;;;5035616;28;20052;-66
2022/11/08 00:04:24;;;;;;;14.02;4.63;;;12.70;99.90;;;;;;5036787;28;20045;-66
2022/11/08 00:15:07;;;;;;;14.38;5.15;;;12.80;99.90;;;;;;5054172;28;20049;-66
2022/11/08 00:17:33;;;;;;;13.70;4.72;;;12.80;99.90;;;;;;5035574;28;20049;-66
2022/11/08 00:19:59;;;;;;;15.25;4.57;;;12.80;99.90;;;;;;5036226;28;20044;-66
2022/11/08 00:22:28;;;;;;;19.50;5.05;;;12.90;99.90;;;;;;5036621;28;20103;-66
2022/11/08 00:24:53;;;;;;;15.68;3.92;;;12.90;99.90;;;;;;5035010;28;20110;-66
2022/11/08 00:27:21;;;;;;;9.00;3.90;;;12.90;99.90;;;;;;5036179;28;20131;-66
2022/11/08 00:29:48;;;;;;;14.18;4.20;;;12.90;99.90;;;;;;5035341;28;20053;-66
2022/11/08 00:32:19;;;;;;;16.48;5.07;;;12.90;99.90;;;;;;5036261;28;20045;-66
2022/11/08 00:34:47;;;;;;;16.00;4.45;;;12.90;99.90;;;;;;5035925;28;20045;-66
2022/11/08 00:37:13;;;;;;;11.55;4.18;;;12.90;99.90;;;;;;5035656;28;20045;-67
2022/11/08 00:39:40;;;;;;;13.93;4.53;;;12.90;99.90;;;;;;5036079;28;20509;-66
2022/11/08 00:42:05;;;;;;;12.90;4.45;;;12.90;99.90;;;;;;5019277;28;20489;-66
2022/11/08 00:44:31;;;;;;;12.77;4.28;;;12.90;99.90;;;;;;5035036;28;20048;-67
2022/11/08 00:46:57;;;;;;;12.40;3.85;;;12.90;99.90;;;;;;5035735;28;20049;-66
2022/11/08 00:49:23;;;;;;;14.40;5.07;;;12.90;99.90;;;;;;5035752;28;20049;-66
2022/11/08 00:51:48;;;;;;;11.05;3.83;;;12.90;99.90;;;;;;5035147;28;20045;-66
2022/11/08 00:54:17;;;;;;;12.38;3.75;;;12.90;99.90;;;;;;5018911;28;20481;-66
2022/11/08 00:56:44;;;;;;;15.02;4.03;;;13.00;99.90;;;;;;5035950;28;20381;-66
2022/11/08 00:59:11;;;;;;;9.40;3.47;;;12.90;99.90;;;;;;5035487;28;20076;-66
2022/11/08 01:01:38;;;;;;;14.35;4.82;;;13.00;99.90;;;;;;5035404;28;20108;-66
2022/11/08 01:04:04;;;;;;;9.07;3.50;;;12.90;99.90;;;;;;5035422;28;20049;-66
2022/11/08 01:06:30;;;;;;;14.05;4.68;;;12.90;99.90;;;;;;5034505;28;20047;-66
2022/11/08 01:08:56;;;;;;;12.45;3.42;;;12.90;99.90;;;;;;5035181;28;20127;-66
2022/11/08 01:11:24;;;;;;;11.00;3.67;;;12.90;99.90;;;;;;5053055;28;20120;-66
2022/11/08 01:13:50;;;;;;;9.98;3.20;;;12.90;99.90;;;;;;5052207;28;20041;-66
2022/11/08 01:16:21;;;;;;;11.10;3.63;;;12.90;99.90;;;;;;5035411;28;20041;-66
2022/11/08 01:18:49;;;;;;;11.95;3.10;;;12.90;99.90;;;;;;5053055;28;20044;-66
2022/11/08 01:21:15;;;;;;;11.48;3.80;;;12.90;99.90;;;;;;5035138;28;20045;-66
2022/11/08 01:23:42;;;;;;;11.65;3.60;;;12.90;99.90;;;;;;5019054;28;20128;-66
2022/11/08 01:26:16;;;;;;;12.80;3.72;;;12.90;99.90;;;;;;5034358;28;20498;-66
2022/11/08 01:28:42;;;;;;;14.57;4.43;;;12.80;99.90;;;;;;5035441;28;20155;-66
2022/11/08 01:31:11;;;;;;;8.00;3.35;;;12.80;99.90;;;;;;5035253;28;20506;-66
2022/11/08 01:33:37;;;;;;;10.27;3.45;;;12.80;99.90;;;;;;5034343;28;20397;-66
2022/11/08 01:36:08;;;;;;;9.95;3.70;;;12.80;99.90;;;;;;5052848;28;20465;-66
2022/11/08 01:38:34;;;;;;;7.07;3.03;;;12.70;99.90;;;;;;5034837;28;20132;-66
2022/11/08 01:41:00;;;;;;;14.80;4.03;;;12.70;99.90;;;;;;5033914;28;20036;-66
2022/11/08 01:43:29;;;;;;;11.48;3.50;;;12.70;99.90;;;;;;5034715;28;20482;-66
2022/11/08 01:46:19;;;;;;;12.07;4.50;;;12.70;99.90;;;;;;5034819;28;20389;-66
2022/11/08 01:49:06;;;;;;;10.23;3.38;;;12.70;99.90;;;;;;5051787;28;20033;-66
2022/11/08 01:51:37;;;;;;;12.10;4.00;;;12.60;99.90;;;;;;5034461;28;20033;-66
2022/11/08 01:54:07;;;;;;;13.55;4.07;;;12.60;99.90;;;;;;5033902;28;20107;-66
2022/11/08 01:56:34;;;;;;;12.20;3.83;;;12.50;99.90;;;;;;5034737;28;20056;-66
2022/11/08 01:59:03;;;;;;;13.35;3.88;;;12.50;99.90;;;;;;5052473;28;20107;-66
2022/11/08 02:01:30;;;;;;;14.15;3.67;;;12.40;99.90;;;;;;5033550;28;20516;-66
2022/11/08 02:03:57;;;;;;;7.50;3.15;;;12.50;99.90;;;;;;5034366;28;20047;-66
2022/11/08 02:06:23;;;;;;;9.95;3.42;;;12.40;99.90;;;;;;5017748;28;20083;-66
2022/11/08 02:08:49;;;;;;;10.82;3.38;;;12.40;99.90;;;;;;5033632;28;20052;-66
2022/11/08 02:11:17;;;;;;;8.48;3.50;;;12.40;99.90;;;;;;5034275;28;20556;-66
2022/11/08 02:13:43;;;;;;;13.00;3.30;;;12.40;99.90;;;;;;5033892;28;20056;-66
2022/11/08 02:16:14;;;;;;;9.82;3.95;;;12.40;99.90;;;;;;5051615;28;20390;-66
2022/11/08 02:18:42;;;;;;;11.27;3.85;;;12.40;99.90;;;;;;5052256;28;20389;-66
2022/11/08 02:21:15;;;;;;;13.57;2.95;;;12.40;99.90;;;;;;5034559;28;20048;-66
2022/11/08 02:23:52;;;;;;;9.45;2.97;;;12.40;99.90;;;;;;5051396;28;20072;-66
2022/11/08 02:26:22;;;;;;;9.80;3.42;;;12.30;99.90;;;;;;5034103;28;20086;-66
2022/11/08 02:28:48;;;;;;;7.20;3.00;;;12.20;99.90;;;;;;5017594;28;20045;-66
2022/11/08 02:31:17;;;;;;;8.25;3.22;;;12.20;99.90;;;;;;5033175;28;20036;-66
2022/11/08 02:33:44;;;;;;;11.93;3.40;;;12.30;99.90;;;;;;5033989;28;20052;-66
2022/11/08 02:36:14;;;;;;;12.02;4.28;;;12.20;99.90;;;;;;5051705;28;20124;-66
2022/11/08 02:38:43;;;;;;;9.50;3.38;;;12.20;99.90;;;;;;5052282;28;20051;-66
2022/11/08 02:41:09;;;;;;;13.43;3.30;;;12.10;99.90;;;;;;5034199;28;20516;-66
2022/11/08 02:43:35;;;;;;;11.40;3.30;;;12.10;99.90;;;;;;5033276;28;20049;-66
2022/11/08 02:46:00;;;;;;;15.55;4.03;;;12.10;99.90;;;;;;5051547;28;20033;-66
2022/11/08 02:48:26;;;;;;;10.50;3.33;;;12.00;99.90;;;;;;5051716;28;20029;-67
2022/11/08 02:50:52;;;;;;;9.52;3.08;;;12.00;99.90;;;;;;5032779;28;20045;-67
2022/11/08 02:53:18;;;;;;;12.35;3.17;;;12.00;99.90;;;;;;5033819;28;20398;-67
2022/11/08 02:55:44;;;;;;;12.38;3.00;;;11.90;99.90;;;;;;5051722;28;20558;-67
2022/11/08 02:58:10;;;;;;;12.02;3.28;;;11.90;99.90;;;;;;5033291;28;20124;-67
2022/11/08 03:00:37;;;;;;;9.35;3.65;;;11.90;99.90;;;;;;5033988;28;20048;-67
2022/11/08 03:03:03;;;;;;;12.68;3.35;;;11.90;99.90;;;;;;5033532;28;20044;-66
2022/11/08 03:05:29;;;;;;;9.88;3.20;;;11.90;99.90;;;;;;5016363;28;20049;-66
2022/11/08 03:07:55;;;;;;;13.35;3.83;;;11.90;99.90;;;;;;5033637;28;20106;-66
2022/11/08 03:10:22;;;;;;;13.13;4.03;;;11.80;99.90;;;;;;5033667;28;20040;-66
2022/11/08 03:12:59;;;;;;;12.25;3.45;;;11.80;99.90;;;;;;5032841;28;20047;-66
2022/11/08 03:15:25;;;;;;;12.02;3.55;;;11.80;99.90;;;;;;5033683;28;20116;-67
2022/11/08 03:17:51;;;;;;;12.00;3.22;;;11.70;99.90;;;;;;5051106;28;20120;-66
2022/11/08 03:20:17;;;;;;;5.82;2.90;;;11.70;99.90;;;;;;5032766;28;20037;-66
2022/11/08 03:22:43;;;;;;;9.75;3.15;;;11.70;99.90;;;;;;5033558;28;20092;-66
2022/11/08 03:25:09;;;;;;;12.07;3.63;;;11.70;99.90;;;;;;5035330;28;20103;-66
2022/11/08 03:27:35;;;;;;;7.78;3.15;;;11.60;99.90;;;;;;5054424;28;20076;-66
2022/11/08 03:30:00;;;;;;;11.15;2.80;;;11.60;99.90;;;;;;5055242;28;20048;-66
2022/11/08 03:32:26;;;;;;;10.45;2.45;;;11.60;99.90;;;;;;5037105;28;20052;-66
2022/11/08 03:34:52;;;;;;;7.68;2.90;;;11.60;99.90;;;;;;5036948;28;20128;-66
2022/11/08 03:37:17;;;;;;;10.07;2.75;;;11.60;99.90;;;;;;5055064;28;20116;-66
2022/11/08 03:39:43;;;;;;;11.13;3.22;;;11.60;99.90;;;;;;5019808;28;20389;-66
2022/11/08 03:42:09;;;;;;;11.15;3.63;;;11.50;99.90;;;;;;5037385;28;20045;-66
2022/11/08 03:44:34;;;;;;;15.20;3.92;;;11.50;99.90;;;;;;5037066;28;20040;-66
2022/11/08 03:47:00;;;;;;;10.23;3.10;;;11.50;99.90;;;;;;5036142;28;20044;-66
2022/11/08 03:49:26;;;;;;;10.63;3.42;;;11.50;99.90;;;;;;5054625;28;20044;-66
2022/11/08 03:51:53;;;;;;;9.48;3.20;;;11.50;99.90;;;;;;5036747;28;20041;-67
2022/11/08 03:54:18;;;;;;;16.50;4.03;;;11.50;99.90;;;;;;5036106;28;20607;-67
2022/11/08 03:56:44;;;;;;;8.90;3.08;;;11.50;99.90;;;;;;5037061;28;20119;-67
2022/11/08 03:59:11;;;;;;;12.25;3.35;;;11.40;99.90;;;;;;5037174;28;20045;-67
2022/11/08 04:01:36;;;;;;;11.52;3.70;;;11.40;99.90;;;;;;5035662;28;20045;-67
2022/11/08 04:04:02;;;;;;;11.55;3.00;;;11.40;99.90;;;;;;5054629;28;20043;-67
2022/11/08 04:06:28;;;;;;;10.13;3.35;;;11.40;99.90;;;;;;5036847;28;20041;-67
2022/11/08 04:08:54;;;;;;;8.35;3.17;;;11.40;99.90;;;;;;5053705;28;20041;-67
2022/11/08 04:16:47;;;;;;;7.50;2.80;;;11.30;99.90;;;;;;5035550;28;20517;-67
2022/11/08 04:21:58;;;;;;;9.32;2.80;;;11.30;99.90;;;;;;5053357;28;20138;-67
2022/11/08 04:24:23;;;;;;;12.27;3.03;;;11.30;99.90;;;;;;5036113;28;20093;-67
2022/11/08 04:26:49;;;;;;;9.32;3.25;;;11.30;99.90;;;;;;5054028;28;20056;-67
2022/11/08 04:29:15;;;;;;;9.85;3.00;;;11.30;99.90;;;;;;5035424;28;20107;-67
2022/11/08 04:31:40;;;;;;;11.80;3.70;;;11.30;99.90;;;;;;5036511;28;20111;-67
2022/11/08 04:34:06;;;;;;;9.20;2.72;;;11.30;99.90;;;;;;5053969;28;20045;-67
2022/11/08 04:36:32;;;;;;;13.45;3.13;;;11.30;99.90;;;;;;5034960;28;20482;-67
2022/11/08 04:38:58;;;;;;;10.68;3.63;;;11.30;99.90;;;;;;5035906;28;20041;-67
2022/11/08 04:41:25;;;;;;;8.50;2.83;;;11.30;99.90;;;;;;5035839;28;20127;-67
2022/11/08 04:43:53;;;;;;;7.97;2.60;;;11.30;99.90;;;;;;5052894;28;20037;-67
2022/11/08 04:46:21;;;;;;;7.53;2.83;;;11.30;99.90;;;;;;5053656;28;20080;-67
2022/11/08 04:48:53;;;;;;;7.18;3.05;;;11.30;99.90;;;;;;5036021;28;20402;-67
2022/11/08 04:51:22;;;;;;;9.10;3.15;;;11.30;99.90;;;;;;5035010;28;20049;-67
2022/11/08 04:53:48;;;;;;;8.85;3.65;;;11.30;99.90;;;;;;5035583;28;20502;-67
2022/11/08 04:56:18;;;;;;;10.38;2.95;;;11.30;99.90;;;;;;5035761;28;20041;-68
2022/11/08 04:58:47;;;;;;;12.05;3.30;;;11.30;99.90;;;;;;5034680;28;20044;-67
2022/11/08 05:01:15;;;;;;;5.88;2.42;;;11.30;99.90;;;;;;5036020;28;20045;-67
2022/11/08 05:03:41;;;;;;;7.47;2.78;;;11.30;99.90;;;;;;5053648;28;20041;-67
2022/11/08 05:06:11;;;;;;;10.38;3.60;;;11.30;99.90;;;;;;5034768;28;20098;-67
2022/11/08 05:08:36;;;;;;;8.93;3.60;;;11.30;99.90;;;;;;5053410;28;20109;-67
2022/11/08 05:11:24;;;;;;;8.63;3.47;;;11.30;99.90;;;;;;5034422;28;20409;-67
2022/11/08 05:13:50;;;;;;;9.98;3.13;;;11.30;99.90;;;;;;5052759;28;20551;-67
2022/11/08 05:16:18;;;;;;;9.10;3.42;;;11.20;99.90;;;;;;5035393;28;20374;-67
2022/11/08 05:18:44;;;;;;;7.00;2.60;;;11.20;99.90;;;;;;5034301;28;20045;-67
2022/11/08 05:23:57;;;;;;;9.07;3.10;;;11.30;99.90;;;;;;5052816;28;20045;-67
2022/11/08 05:26:24;;;;;;;8.27;3.00;;;11.30;99.90;;;;;;5034317;28;20048;-67
2022/11/08 05:28:49;;;;;;;8.68;3.53;;;11.20;99.90;;;;;;5034678;28;20041;-67
2022/11/08 05:31:15;;;;;;;11.00;3.72;;;11.20;99.90;;;;;;5052856;28;20036;-67
2022/11/08 05:33:41;;;;;;;10.70;3.20;;;11.20;99.90;;;;;;5034359;28;20051;-67
2022/11/08 05:36:09;;;;;;;8.88;3.80;;;11.20;99.90;;;;;;5053052;28;20032;-67
2022/11/08 05:38:35;;;;;;;7.93;3.00;;;11.20;99.90;;;;;;5034830;28;20087;-67
2022/11/08 05:41:03;;;;;;;12.55;4.07;;;11.20;99.90;;;;;;5033910;28;20037;-67
2022/11/08 05:43:29;;;;;;;10.30;3.25;;;11.20;99.90;;;;;;5034661;28;20072;-67
2022/11/08 05:45:54;;;;;;;9.50;2.88;;;11.20;99.90;;;;;;5034540;28;20079;-67
2022/11/08 05:48:20;;;;;;;10.13;3.25;;;11.20;99.90;;;;;;5051136;28;20047;-67
2022/11/08 05:50:47;;;;;;;14.18;3.47;;;11.20;99.90;;;;;;5034624;28;20048;-67
2022/11/08 05:53:12;;;;;;;7.68;2.95;;;11.20;99.90;;;;;;5034427;28;20524;-67
2022/11/08 05:55:38;;;;;;;8.90;3.00;;;11.20;99.90;;;;;;5034554;28;20040;-67
2022/11/08 05:58:04;;;;;;;6.85;2.83;;;11.20;99.90;;;;;;5034537;28;20095;-67
2022/11/08 06:00:29;;;;;;;8.30;2.70;;;11.20;99.90;;;;;;5051719;28;20450;-67
2022/11/08 06:02:55;;;;;;;7.63;2.85;;;11.20;99.90;;;;;;5052508;28;20508;-67
2022/11/08 06:05:21;;;;;;;8.95;3.00;;;11.30;99.90;;;;;;5052368;28;20055;-67
2022/11/08 06:07:46;;;;;;;8.40;2.83;;;11.30;99.90;;;;;;5033808;28;20489;-67
2022/11/08 06:10:12;;;;;;;8.73;2.72;;;11.30;99.90;;;;;;5034600;28;20123;-67
2022/11/08 06:12:38;;;;;;;12.48;3.20;;;11.30;99.90;;;;;;5018418;28;20049;-67
2022/11/08 06:15:06;;;;;;;8.07;2.92;;;11.30;99.90;;;;;;5033393;28;20486;-67
2022/11/08 06:17:32;;;;;;;12.05;2.97;;;11.30;99.90;;;;;;5018113;28;20393;-67
2022/11/08 06:19:58;;;;;;;8.60;3.00;;;11.30;99.90;;;;;;5034390;28;20048;-67
2022/11/08 06:22:23;;;;;;;8.15;2.70;;;11.20;99.90;;;;;;5016919;28;20044;-67
2022/11/08 06:24:49;;;;;;;10.00;2.90;;;11.20;99.90;;;;;;5034118;28;20075;-67
2022/11/08 06:27:15;;;;;;;8.00;2.92;;;11.30;99.90;;;;;;5033921;28;20581;-67
2022/11/08 06:29:43;;;;;;;7.47;2.67;;;11.20;99.90;;;;;;5033620;28;20397;-67
2022/11/08 06:32:10;;;;;;;8.82;3.17;;;11.20;99.90;;;;;;5052147;28;20040;-67
2022/11/08 06:34:35;;;;;;;6.40;2.53;;;11.20;99.90;;;;;;5051831;28;20037;-67
2022/11/08 06:37:01;;;;;;;7.72;2.72;;;11.30;99.90;;;;;;5033302;28;20359;-67
2022/11/08 06:39:27;;;;;;;9.20;2.75;;;11.20;99.90;;;;;;5033890;28;20051;-67
2022/11/08 06:41:53;;;;;;;9.00;2.88;;;11.30;99.90;;;;;;5051628;28;20120;-67
2022/11/08 06:44:18;;;;;;;7.80;2.53;;;11.30;99.90;;;;;;5050981;28;20125;-67
2022/11/08 06:46:44;;;;;;;12.80;3.20;;;11.30;99.90;;;;;;5051842;28;20041;-67
2022/11/08 06:49:09;;;;;;;8.02;2.78;;;11.30;99.90;;;;;;5034176;28;20491;-67
2022/11/08 06:51:35;;;;;;;8.10;2.30;;;11.30;99.90;;;;;;5033176;28;20111;-67
2022/11/08 06:54:02;;;;;;;7.43;2.50;;;11.30;99.90;;;;;;5033813;28;20045;-67
2022/11/08 06:56:28;;;;;;;7.35;2.25;;;11.30;99.90;;;;;;5050701;28;20068;-67
2022/11/08 06:58:54;;;;;;;9.13;2.17;;;11.40;99.90;;;;;;5018721;28;20033;-67
2022/11/08 07:01:20;;;;;;;6.50;2.13;;;11.40;99.90;;;;;;5037856;28;20037;-67
2022/11/08 07:03:45;;;;;;;5.82;2.20;;;11.40;99.90;;;;;;5036995;28;20382;-67
2022/11/08 07:06:11;;;;;;;10.13;2.65;;;11.40;99.90;;;;;;5055811;28;20048;-67
2022/11/08 07:08:37;;;;;;;9.30;2.70;;;11.40;99.90;;;;;;5021259;28;20052;-67
2022/11/08 07:11:02;;;;;;;7.60;2.50;;;11.40;99.90;;;;;;5054505;28;20045;-67
2022/11/08 07:13:28;;;;;;;6.45;2.70;;;11.40;99.90;;;;;;5055314;28;20482;-67
2022/11/08 07:15:57;;;;;;;6.72;2.60;;;11.30;99.90;;;;;;5037493;28;20032;-67
2022/11/08 07:18:23;;;;;;;9.45;2.40;;;11.30;99.90;;;;;;5036569;28;20504;-67
2022/11/08 07:20:49;;;;;;;6.25;2.42;;;11.30;99.90;;;;;;5037370;28;20037;-67
2022/11/08 07:23:15;;;;;;;6.50;2.45;;;11.30;99.90;;;;;;5055413;28;20041;-67
2022/11/08 07:25:41;;;;;;;19.52;2.90;;;11.30;99.90;;;;;;5019984;28;20052;-67
2022/11/08 07:28:16;;;;;;;8.10;2.53;;;11.30;99.90;;;;;;5037453;28;20057;-66
2022/11/08 07:30:46;;;;;;;9.38;2.50;;;11.30;99.90;;;;;;5055362;28;20080;-66
2022/11/08 07:33:13;;;;;;;5.72;2.20;;;11.40;99.90;;;;;;5054567;28;20489;-66
2022/11/08 07:35:39;;;;;;;9.77;2.83;;;11.40;99.90;;;;;;5055295;28;20061;-67
2022/11/08 07:38:05;;;;;;;8.90;2.38;;;11.40;99.90;;;;;;5036918;28;20041;-67
2022/11/08 07:40:31;;;;;;;5.25;1.98;;;11.40;99.90;;;;;;5053960;28;20037;-67
2022/11/08 07:42:58;;;;;;;7.82;2.63;;;11.50;99.90;;;;;;5037029;28;20103;-67
2022/11/08 07:45:24;;;;;;;6.22;2.40;;;11.40;99.90;;;;;;5037174;28;20398;-67
2022/11/08 07:48:01;;;;;;;6.32;2.10;;;11.50;99.90;;;;;;5036349;28;20124;-67
2022/11/08 07:50:27;;;;;;;4.97;2.25;;;11.50;99.90;;;;;;5054809;28;20394;-67
2022/11/08 07:52:53;;;;;;;4.25;1.85;;;11.50;99.90;;;;;;5053834;28;20033;-66
2022/11/08 07:55:19;;;;;;;9.18;2.42;;;11.60;99.90;;;;;;5036562;28;20037;-67
2022/11/08 07:57:45;;;;;;;5.78;2.42;;;11.60;99.90;;;;;;5054660;28;20044;-67
2022/11/08 08:00:11;;;;;;;5.65;2.40;;;11.60;99.90;;;;;;5036277;28;20114;-67
2022/11/08 08:02:37;;;;;;;9.13;2.40;;;11.70;99.90;;;;;;5036840;28;20045;-67
2022/11/08 08:05:03;;;;;;;7.13;2.33;;;11.70;99.90;;;;;;5054542;28;20055;-67
2022/11/08 08:07:28;;;;;;;7.07;2.00;;;11.70;99.90;;;;;;5053457;28;20045;-67
2022/11/08 08:09:54;;;;;;;6.32;2.30;;;11.80;99.90;;;;;;5035754;28;20386;-67
2022/11/08 08:12:19;;;;;;;7.05;2.42;;;11.80;99.90;;;;;;5054356;28;20045;-67
2022/11/08 08:14:45;;;;;;;4.82;1.80;;;11.80;99.90;;;;;;5019169;28;20044;-67
2022/11/08 08:17:11;;;;;;;7.68;2.80;;;11.90;99.90;;;;;;5054701;28;20397;-67
2022/11/08 08:19:36;;;;;;;9.55;2.63;;;11.90;99.90;;;;;;5034494;28;20486;-68
2022/11/08 08:22:02;;;;;;;5.10;2.63;;;11.90;99.90;;;;;;5035281;28;20041;-66
2022/11/08 08:24:28;;;;;;;5.22;2.10;;;11.90;99.90;;;;;;5051381;28;20056;-66
2022/11/08 08:26:53;;;;;;;6.82;2.15;;;12.00;99.90;;;;;;5036046;28;20099;-66
2022/11/08 08:29:19;;;;;;;6.10;2.80;;;12.00;99.90;;;;;;5029583;28;20443;-67
2022/11/08 08:31:45;;;;;;;7.38;2.47;;;12.00;99.90;;;;;;5056369;28;20048;-67
2022/11/08 08:34:11;;;;;;;5.75;2.38;;;12.10;99.90;;;;;;5046146;28;20052;-68
2022/11/08 08:36:36;;;;;;;8.48;2.47;;;12.10;99.90;;;;;;5013314;28;20095;-68
2022/11/08 08:39:02;;;;;;;5.35;2.10;;;12.20;99.90;;;;;;5000516;28;20045;-67
2022/11/08 08:41:28;;;;;;;6.47;2.47;;;12.20;99.90;;;;;;5014024;28;20045;-67
2022/11/08 08:43:54;;;;;;;7.57;2.30;;;12.30;99.90;;;;;;5013258;28;20045;-68
2022/11/08 08:46:20;;;;;;;8.23;2.80;;;12.30;99.90;;;;;;4997103;28;20088;-68
2022/11/08 08:48:45;;;;;;;7.75;2.40;;;12.30;99.90;;;;;;5048427;28;20044;-65
2022/11/08 08:51:11;;;;;;;6.53;2.13;;;12.40;99.90;;;;;;5032547;28;20048;-65
2022/11/08 08:53:37;;;;;;;6.68;2.08;;;12.40;99.90;;;;;;5033306;28;20044;-66
2022/11/08 08:56:04;;;;;;;5.40;2.03;;;12.50;99.90;;;;;;5050681;28;20056;-66
2022/11/08 08:58:30;;;;;;;5.82;2.42;;;12.50;99.90;;;;;;5040128;28;20044;-68
2022/11/08 09:01:03;;;;;;;6.28;2.65;;;12.60;99.90;;;;;;5053011;28;20044;-68
2022/11/08 09:03:29;;;;;;;8.02;3.20;;;12.60;99.90;;;;;;5035618;28;20041;-68
2022/11/08 09:05:59;;;;;;;8.05;3.28;;;12.60;99.90;;;;;;5029144;28;20111;-68
2022/11/08 09:08:25;;;;;;;8.80;3.05;;;12.60;99.90;;;;;;5016090;28;20087;-68
2022/11/08 09:10:53;;;;;;;6.03;2.30;;;12.60;99.90;;;;;;5015674;28;20049;-66
2022/11/08 09:13:18;;;;;;;6.18;2.53;;;12.60;99.90;;;;;;5033002;28;20509;-66
2022/11/08 09:15:44;;;;;;;6.20;2.25;;;12.60;99.90;;;;;;5029321;28;20045;-64
2022/11/08 09:18:09;;;;;;;6.15;2.65;;;12.60;99.90;;;;;;5032555;28;20040;-66
2022/11/08 09:20:35;;;;;;;6.07;2.28;;;12.60;99.90;;;;;;5050142;28;20056;-65
2022/11/08 09:23:02;;;;;;;8.32;2.75;;;12.60;99.90;;;;;;5032124;28;20148;-66
2022/11/08 09:25:27;;;;;;;5.25;2.47;;;12.70;99.90;;;;;;5045133;28;20056;-68
2022/11/08 09:27:53;;;;;;;6.70;3.08;;;12.70;99.90;;;;;;5049152;28;20555;-66
2022/11/08 09:30:19;;;;;;;5.53;2.40;;;12.70;99.90;;;;;;5049936;28;20041;-66
2022/11/08 09:32:45;;;;;;;4.30;2.25;;;12.70;99.90;;;;;;5031614;28;20051;-66
2022/11/08 09:35:10;;;;;;;6.30;2.38;;;12.70;99.90;;;;;;5029028;28;20040;-67
2022/11/08 09:37:36;;;;;;;9.43;3.03;;;12.70;99.90;;;;;;5031274;28;20056;-68
2022/11/08 09:40:02;;;;;;;5.80;2.50;;;12.70;99.90;;;;;;5030770;28;20459;-67
2022/11/08 09:42:44;;;;;;;10.27;2.33;;;12.70;99.90;;;;;;5049108;28;20616;-68
2022/11/08 09:45:36;;;;;;;8.40;3.33;;;12.70;99.90;;;;;;5030846;28;20056;-68
2022/11/08 09:48:04;;;;;;;4.93;2.10;;;12.80;99.90;;;;;;5048743;28;20572;-66
2022/11/08 09:50:43;;;;;;;7.55;2.80;;;12.80;99.90;;;;;;5020378;28;20053;-66
2022/11/08 09:53:18;;;;;;;7.82;2.60;;;12.80;99.90;;;;;;5019148;28;20039;-66
2022/11/08 09:55:46;;;;;;;;;;;12.80;99.90;;;;;;5027197;28;20053;-66
2022/11/08 09:58:27;;;;;;;6.85;2.60;;;12.80;99.90;;;;;;5006439;28;20357;-68
2022/11/08 10:00:53;;;;;;;8.45;2.70;;;12.80;99.90;;;;;;5047692;28;20119;-66
2022/11/08 10:03:22;;;;;;;4.65;2.00;;;12.80;99.90;;;;;;5030882;28;20465;-67
2022/11/08 10:06:22;;;;;;;6.57;2.47;;;12.90;99.90;;;;;;5048948;28;20517;-67
2022/11/08 10:09:15;;;;;;;5.93;2.15;;;12.90;99.90;;;;;;5049031;28;20393;-67
2022/11/08 10:12:01;;;;;;;5.40;2.20;;;12.90;99.90;;;;;;5049691;28;20053;-67
2022/11/08 10:14:52;;;;;;;5.10;2.25;;;12.90;99.90;;;;;;5030812;28;20080;-67
2022/11/08 10:21:29;;;;;;;10.27;3.28;;;12.90;99.90;;;;;;5043934;28;20047;-66
2022/11/08 10:24:17;;;;;;;4.72;2.17;;;12.90;99.90;;;;;;5049132;28;20051;-66
2022/11/08 10:26:46;;;;;;;6.55;2.55;;;12.80;99.90;;;;;;5037857;28;20045;-66
2022/11/08 10:29:32;;;;;;;7.28;2.75;;;12.80;99.90;;;;;;5030584;28;20103;-66
2022/11/08 10:32:10;;;;;;;5.05;1.90;;;12.80;99.90;;;;;;5028291;28;20045;-66
2022/11/08 10:34:56;;;;;;;6.70;2.30;;;12.80;99.90;;;;;;5036711;28;20041;-66
2022/11/08 10:37:24;;;;;;;6.28;2.30;;;12.80;99.90;;;;;;5026965;28;20034;-67
2022/11/08 10:40:25;;;;;;;6.93;2.25;;;12.80;99.90;;;;;;5029869;28;20041;-65
2022/11/08 10:43:13;;;;;;;5.80;2.17;;;12.80;99.90;;;;;;5007295;28;20405;-65
2022/11/08 10:45:39;;;;;;;6.90;2.30;;;12.80;99.90;;;;;;5040273;28;20119;-65
2022/11/08 10:48:05;;;;;;;6.03;2.42;;;12.80;99.90;;;;;;5029742;28;20462;-65
2022/11/08 10:50:41;;;;;;;4.20;1.90;;;12.80;99.90;;;;;;5060886;28;20068;-65
2022/11/08 10:53:15;;;;;;;5.22;2.47;;;12.80;99.90;;;;;;5054132;28;20040;-65
2022/11/08 10:55:47;;;;;;;7.47;2.35;;;12.90;99.90;;;;;;5033055;28;20056;-66
2022/11/08 10:58:28;;;;;;;6.35;2.38;;;12.90;99.90;;;;;;5034159;28;20040;-66
2022/11/08 11:01:16;;;;;;;6.65;2.97;;;12.90;99.90;;;;;;5034153;28;20072;-66
2022/11/08 11:03:43;;;;;;;7.30;2.20;;;12.90;99.90;;;;;;5050808;28;20073;-66
2022/11/08 11:06:22;;;;;;;9.02;2.75;;;13.00;99.90;;;;;;5051962;28;20541;-66
2022/11/08 11:08:57;;;;;;;4.95;2.15;;;13.10;99.90;;;;;;5017367;28;20037;-63
2022/11/08 11:11:24;;;;;;;5.32;2.00;;;13.10;99.90;;;;;;5028900;28;20037;-65
2022/11/08 11:14:20;;;;;;;6.55;2.15;;;13.10;99.90;;;;;;5013490;28;20124;-64
2022/11/08 11:17:12;;;;;;;5.93;3.00;;;13.20;99.90;;;;;;5030770;28;20038;-63
2022/11/08 11:19:43;;;;;;;5.50;2.25;;;13.20;99.90;;;;;;5023454;28;20037;-64
2022/11/08 11:22:11;;;;;;;5.90;2.75;;;13.30;99.90;;;;;;5048035;28;20041;-64
2022/11/08 11:24:50;;;;;;;5.75;2.67;;;13.30;99.90;;;;;;5048595;28;20056;-64
2022/11/08 11:27:36;;;;;;;6.57;2.75;;;13.40;99.90;;;;;;5049233;28;20136;-64
2022/11/08 11:30:23;;;;;;;8.02;2.72;;;13.40;99.90;;;;;;5050236;28;20482;-64
2022/11/08 11:33:03;;;;;;;5.97;2.72;;;13.40;99.90;;;;;;5029479;28;20041;-64
2022/11/08 11:35:45;;;;;;;5.78;2.15;;;13.40;99.90;;;;;;5033331;28;20124;-64
2022/11/08 11:38:41;;;;;;;8.27;2.70;;;13.50;99.90;;;;;;5032407;28;20041;-64
2022/11/08 11:41:15;;;;;;;;;;;13.50;99.90;;;;;;5033063;28;20124;-64
2022/11/08 11:43:47;;;;;;;7.47;2.60;;;13.50;99.90;;;;;;5020496;28;19924;-64
2022/11/08 11:46:26;;;;;;;7.15;2.47;;;13.60;99.90;;;;;;5002018;28;20086;-64
2022/11/08 11:49:00;;;;;;;4.95;2.33;;;13.60;99.90;;;;;;5035469;28;20116;-64
2022/11/08 11:51:28;;;;;;;5.93;2.53;;;13.60;99.90;;;;;;5036350;28;20075;-64
2022/11/08 11:53:55;;;;;;;9.98;3.10;;;13.70;99.90;;;;;;5053574;28;20040;-64
2022/11/08 11:56:28;;;;;;;5.55;2.50;;;13.70;99.90;;;;;;5018987;28;20116;-64
2022/11/08 11:59:15;;;;;;;6.35;2.65;;;13.80;99.90;;;;;;5035451;28;20042;-66
2022/11/08 12:02:04;;;;;;;7.82;2.08;;;13.80;99.90;;;;;;5033397;28;20051;-64
2022/11/08 12:04:41;;;;;;;4.85;2.00;;;13.80;99.90;;;;;;5035516;28;20040;-65
2022/11/08 12:07:20;;;;;;;5.47;1.90;;;13.80;99.90;;;;;;5054014;28;20040;-64
2022/11/08 12:10:08;;;;;;;4.00;1.95;;;13.80;99.90;;;;;;5036954;28;20055;-64
2022/11/08 12:12:49;;;;;;;6.00;2.33;;;13.80;99.90;;;;;;5034593;28;20124;-64
2022/11/08 12:15:36;;;;;;;4.43;2.17;;;13.80;99.90;;;;;;5034053;28;20049;-64
2022/11/08 12:18:14;;;;;;;4.93;2.47;;;13.90;99.90;;;;;;5019072;28;20056;-64
2022/11/08 12:21:06;;;;;;;8.43;2.42;;;13.90;99.90;;;;;;5019317;28;20037;-64
2022/11/08 12:23:59;;;;;;;4.90;2.10;;;14.00;99.90;;;;;;5031871;28;20103;-63
2022/11/08 12:26:52;;;;;;;4.95;2.33;;;14.00;99.90;;;;;;5052090;28;20059;-63
2022/11/08 12:29:39;;;;;;;6.78;2.40;;;14.10;99.90;;;;;;5053183;28;20044;-63
2022/11/08 12:32:55;;;;;;;6.18;2.70;;;14.10;99.90;;;;;;5036250;28;20079;-63
2022/11/08 12:35:31;;;;;;;5.50;1.63;;;14.20;99.90;;;;;;4953167;29;20079;-64
2022/11/08 12:38:27;;;;;;;5.63;1.90;;;14.20;99.90;;;;;;5030879;28;20099;-65
2022/11/08 12:41:11;;;;;;;6.25;1.90;;;14.30;99.90;;;;;;5053753;28;20501;-63
2022/11/08 12:44:07;;;;;;;5.38;2.03;;;14.30;99.90;;;;;;5036121;28;20059;-64
2022/11/08 12:47:01;;;;;;;8.63;2.92;;;14.20;99.90;;;;;;5053066;28;20087;-63
2022/11/08 12:49:50;;;;;;;6.47;2.55;;;14.30;99.90;;;;;;5035291;28;20045;-64
2022/11/08 12:52:40;;;;;;;6.78;2.63;;;14.30;99.90;;;;;;5035834;28;20083;-63
2022/11/08 12:55:15;;;;;;;5.80;2.67;;;14.30;99.90;;;;;;5035659;28;20052;-63
2022/11/08 12:57:42;;;;;;;4.65;2.17;;;14.40;99.90;;;;;;5053502;28;20029;-63
2022/11/08 13:00:17;;;;;;;6.13;2.15;;;14.40;99.90;;;;;;5035964;28;20040;-63
2022/11/08 13:02:56;;;;;;;4.47;1.98;;;14.40;99.90;;;;;;5034852;28;20045;-63
2022/11/08 13:05:26;;;;;;;7.78;2.72;;;14.40;99.90;;;;;;5053298;28;20052;-63
2022/11/08 13:08:19;;;;;;;8.35;3.03;;;14.40;99.90;;;;;;5053451;28;20083;-63
2022/11/08 13:11:10;;;;;;;7.43;2.67;;;14.40;99.90;;;;;;5038153;28;20048;-63
2022/11/08 13:13:48;;;;;;;5.88;1.77;;;14.40;99.90;;;;;;5052788;28;20044;-63
2022/11/08 13:16:20;;;;;;;4.07;1.88;;;14.40;99.90;;;;;;5018629;28;20071;-63
2022/11/08 13:18:52;;;;;;;5.78;2.45;;;14.40;99.90;;;;;;5035418;28;20041;-63
2022/11/08 13:21:33;;;;;;;6.32;2.22;;;14.50;99.90;;;;;;5053141;28;20045;-63
2022/11/08 13:24:01;;;;;;;6.72;2.33;;;14.50;99.90;;;;;;5051866;28;20041;-64
2022/11/08 13:26:29;;;;;;;4.95;2.00;;;14.40;99.90;;;;;;5035161;28;20124;-63